Time;durP1;ratioP1;P1;durP2;ratioP2;P2;SDS_P1;SDS_P2;PMS_P1;PMS_P2;Temp;Humidity;BMP_temperature;BMP_pressure;BME280_temperature;BME280_humidity;BME280_pressure;Samples;Min_cycle;Max_cycle;Signal;HPM_P1;HPM_P2
2023/06/30 00:01:29;;;;;;;0.68;0.68;;;;;20.00;95707.00;;;;5052633;28;20670;-55
2023/06/30 00:03:57;;;;;;;1.10;1.10;;;;;20.00;95707.00;;;;5053156;28;20235;-55
2023/06/30 00:06:25;;;;;;;0.60;0.60;;;;;19.90;95694.00;;;;5052535;28;20188;-55
2023/06/30 00:08:52;;;;;;;1.10;1.10;;;;;19.90;95701.00;;;;5052636;28;20188;-55
2023/06/30 00:11:23;;;;;;;1.10;1.10;;;;;19.90;95691.00;;;;5052842;28;20200;-56
2023/06/30 00:13:52;;;;;;;1.00;1.00;;;;;19.90;95691.00;;;;5052539;28;20216;-56
2023/06/30 00:16:19;;;;;;;1.40;1.20;;;;;19.90;95685.00;;;;5052503;28;20219;-56
2023/06/30 00:18:47;;;;;;;0.80;0.80;;;;;19.80;95680.00;;;;5052677;28;20211;-56
2023/06/30 00:21:15;;;;;;;1.23;1.23;;;;;19.80;95682.00;;;;5052541;28;20230;-55
2023/06/30 00:23:43;;;;;;;0.83;0.83;;;;;19.70;95676.00;;;;5052713;28;20222;-55
2023/06/30 00:26:10;;;;;;;0.70;0.70;;;;;19.60;95670.00;;;;5052430;28;20233;-55
2023/06/30 00:28:39;;;;;;;1.20;1.10;;;;;19.60;95668.00;;;;5052690;28;20189;-56
2023/06/30 00:31:06;;;;;;;1.00;1.00;;;;;19.40;95666.00;;;;5052818;28;20207;-57
2023/06/30 00:33:34;;;;;;;1.07;1.07;;;;;19.30;95660.00;;;;5052400;28;20216;-57
2023/06/30 00:36:01;;;;;;;1.07;1.07;;;;;19.40;95663.00;;;;5052325;28;20207;-55
2023/06/30 00:38:28;;;;;;;0.80;0.80;;;;;19.40;95654.00;;;;5051155;28;20262;-55
2023/06/30 00:40:55;;;;;;;0.47;0.47;;;;;19.30;95652.00;;;;5052050;28;20192;-56
2023/06/30 00:43:23;;;;;;;1.23;1.20;;;;;19.30;95645.00;;;;5052226;28;20216;-56
2023/06/30 00:45:52;;;;;;;2.37;1.07;;;;;19.40;95649.00;;;;5052239;28;20213;-56
2023/06/30 00:48:19;;;;;;;1.63;1.43;;;;;19.40;95646.00;;;;5052335;28;20188;-55
2023/06/30 00:50:47;;;;;;;0.90;0.90;;;;;19.30;95652.00;;;;5050950;28;20203;-55
2023/06/30 00:53:15;;;;;;;5.97;1.25;;;;;19.30;95640.00;;;;5052044;28;20212;-56
2023/06/30 00:55:44;;;;;;;1.30;1.27;;;;;19.30;95639.00;;;;5052431;28;20204;-55
2023/06/30 00:58:11;;;;;;;1.07;1.07;;;;;19.40;95639.00;;;;5051903;28;20227;-56
2023/06/30 01:00:39;;;;;;;0.80;0.80;;;;;19.30;95635.00;;;;5052382;28;20196;-55
2023/06/30 01:03:16;;;;;;;0.80;0.80;;;;;19.30;95639.00;;;;5055304;28;20200;-55
2023/06/30 01:05:50;;;;;;;1.67;1.53;;;;;19.30;95635.00;;;;5055732;28;20185;-59
2023/06/30 01:08:24;;;;;;;0.60;0.60;;;;;19.20;95638.00;;;;5055966;28;20187;-56
2023/06/30 01:10:53;;;;;;;1.10;1.10;;;;;19.20;95637.00;;;;5055740;28;20180;-55
2023/06/30 01:13:22;;;;;;;1.50;1.47;;;;;19.10;95634.00;;;;5055467;28;20224;-56
2023/06/30 01:15:51;;;;;;;1.53;1.43;;;;;19.10;95638.00;;;;5055089;28;20196;-55
2023/06/30 01:18:22;;;;;;;3.43;2.47;;;;;19.10;95626.00;;;;5055919;28;20294;-55
2023/06/30 01:20:50;;;;;;;0.83;0.83;;;;;19.00;95594.00;;;;5055548;28;20208;-56
2023/06/30 01:23:28;;;;;;;0.70;0.70;;;;;19.10;95625.00;;;;5055398;28;20223;-55
2023/06/30 01:25:58;;;;;;;0.90;0.90;;;;;19.00;95625.00;;;;5055629;28;20188;-56
2023/06/30 01:28:28;;;;;;;0.90;0.90;;;;;19.00;95621.00;;;;5055216;28;20177;-56
2023/06/30 01:30:56;;;;;;;1.27;1.23;;;;;19.00;95623.00;;;;5054958;28;20192;-56
2023/06/30 01:33:26;;;;;;;0.70;0.70;;;;;19.00;95620.00;;;;5055215;28;20615;-56
2023/06/30 01:35:54;;;;;;;0.97;0.97;;;;;19.00;95613.00;;;;5055264;28;20192;-56
2023/06/30 01:38:21;;;;;;;0.83;0.83;;;;;19.00;95610.00;;;;5055106;28;20240;-56
2023/06/30 01:40:49;;;;;;;3.93;1.87;;;;;19.00;95605.00;;;;5055145;28;20189;-56
2023/06/30 01:43:17;;;;;;;1.07;1.07;;;;;19.00;95607.00;;;;5054714;28;20290;-57
2023/06/30 01:45:44;;;;;;;2.37;1.33;;;;;19.00;95606.00;;;;5054828;28;20188;-55
2023/06/30 01:48:12;;;;;;;1.23;1.20;;;;;18.90;95600.00;;;;5054934;28;20592;-55
2023/06/30 01:50:41;;;;;;;1.40;1.40;;;;;18.90;95604.00;;;;5054939;28;20188;-55
2023/06/30 01:53:08;;;;;;;0.60;0.60;;;;;18.90;95598.00;;;;5055232;28;20733;-55
2023/06/30 01:55:37;;;;;;;1.37;1.27;;;;;18.90;95592.00;;;;5054715;28;20204;-56
2023/06/30 01:58:04;;;;;;;0.80;0.80;;;;;18.80;95588.00;;;;5055062;28;20573;-56
2023/06/30 02:00:32;;;;;;;1.47;0.87;;;;;18.70;95590.00;;;;5053449;28;20199;-55
2023/06/30 02:02:59;;;;;;;0.93;0.93;;;;;18.70;95594.00;;;;5054907;28;20215;-56
2023/06/30 02:05:26;;;;;;;1.50;1.40;;;;;18.60;95597.00;;;;5054636;28;20188;-56
2023/06/30 02:07:55;;;;;;;1.10;1.10;;;;;18.70;95592.00;;;;5054699;28;20191;-55
2023/06/30 02:10:22;;;;;;;1.13;1.13;;;;;18.70;95593.00;;;;5054823;28;20207;-56
2023/06/30 02:12:50;;;;;;;0.83;0.83;;;;;18.60;95588.00;;;;5054389;28;20192;-57
2023/06/30 02:15:17;;;;;;;4.50;2.03;;;;;18.50;95598.00;;;;5054484;28;20199;-56
2023/06/30 02:17:44;;;;;;;1.27;1.17;;;;;18.50;95589.00;;;;5054309;28;20192;-55
2023/06/30 02:20:13;;;;;;;0.73;0.73;;;;;18.50;95594.00;;;;5054353;28;20200;-55
2023/06/30 02:22:40;;;;;;;0.90;0.90;;;;;18.40;95602.00;;;;5054360;28;20620;-56
2023/06/30 02:25:09;;;;;;;1.70;1.27;;;;;18.40;95605.00;;;;5054487;28;20215;-55
2023/06/30 02:27:36;;;;;;;1.73;1.63;;;;;18.50;95604.00;;;;5054185;28;20193;-55
2023/06/30 02:30:06;;;;;;;1.40;1.30;;;;;18.50;95603.00;;;;5054179;28;20196;-56
2023/06/30 02:32:38;;;;;;;0.83;0.83;;;;;18.60;95598.00;;;;5054100;28;20275;-56
2023/06/30 02:35:06;;;;;;;1.10;1.00;;;;;18.60;95601.00;;;;5053958;28;20364;-55
2023/06/30 02:37:33;;;;;;;1.10;1.10;;;;;18.70;95595.00;;;;5054071;28;20325;-56
2023/06/30 02:40:01;;;;;;;1.27;1.27;;;;;18.70;95593.00;;;;5053958;28;20220;-55
2023/06/30 02:42:30;;;;;;;1.77;1.67;;;;;18.70;95592.00;;;;5054219;28;20602;-55
2023/06/30 02:44:57;;;;;;;1.10;1.10;;;;;18.70;95586.00;;;;5053181;28;20220;-56
2023/06/30 02:47:24;;;;;;;1.70;1.60;;;;;18.70;95592.00;;;;5054400;28;20274;-56
2023/06/30 02:49:52;;;;;;;1.43;1.33;;;;;18.60;95582.00;;;;5053869;28;20188;-55
2023/06/30 02:52:19;;;;;;;1.37;1.27;;;;;18.60;95580.00;;;;5053836;28;20192;-55
2023/06/30 02:54:47;;;;;;;1.33;1.33;;;;;18.60;95583.00;;;;5053568;28;20231;-55
2023/06/30 02:57:14;;;;;;;1.67;1.57;;;;;18.60;95581.00;;;;5054159;28;20199;-55
2023/06/30 02:59:43;;;;;;;1.90;1.27;;;;;18.50;95582.00;;;;5053622;28;20223;-55
2023/06/30 03:02:10;;;;;;;0.87;0.87;;;;;18.50;95581.00;;;;5053859;28;20196;-56
2023/06/30 03:04:37;;;;;;;1.90;1.30;;;;;18.40;95582.00;;;;5053294;28;20216;-56
2023/06/30 03:07:05;;;;;;;1.27;1.23;;;;;18.40;95573.00;;;;5053552;28;20555;-55
2023/06/30 03:09:32;;;;;;;0.90;0.90;;;;;18.40;95570.00;;;;5053662;28;20666;-56
2023/06/30 03:12:00;;;;;;;1.60;1.50;;;;;18.30;95567.00;;;;5053370;28;20192;-56
2023/06/30 03:14:27;;;;;;;2.17;2.07;;;;;18.30;95572.00;;;;5052688;28;20227;-55
2023/06/30 03:16:56;;;;;;;1.47;1.37;;;;;18.30;95570.00;;;;5053582;28;20200;-56
2023/06/30 03:19:23;;;;;;;1.97;1.07;;;;;18.30;95565.00;;;;5053451;28;20216;-55
2023/06/30 03:21:51;;;;;;;1.17;1.17;;;;;18.40;95560.00;;;;5053217;28;20679;-56
2023/06/30 03:24:18;;;;;;;1.70;1.60;;;;;18.40;95567.00;;;;5052983;28;20216;-55
2023/06/30 03:26:45;;;;;;;1.47;1.43;;;;;18.40;95565.00;;;;5053362;28;20245;-56
2023/06/30 03:29:13;;;;;;;1.33;1.33;;;;;18.40;95558.00;;;;5053192;28;20659;-56
2023/06/30 03:31:40;;;;;;;1.80;1.70;;;;;18.40;95559.00;;;;5053051;28;20246;-55
2023/06/30 03:34:09;;;;;;;1.20;1.10;;;;;18.30;95557.00;;;;5053009;28;20703;-56
2023/06/30 03:36:36;;;;;;;0.93;0.93;;;;;18.20;95568.00;;;;5052567;28;20670;-56
2023/06/30 03:39:05;;;;;;;1.30;1.30;;;;;18.20;95577.00;;;;5052717;28;20220;-56
2023/06/30 03:41:32;;;;;;;1.00;1.00;;;;;17.90;95591.00;;;;5052906;28;20200;-56
2023/06/30 03:43:59;;;;;;;1.30;1.20;;;;;17.70;95588.00;;;;5052922;28;20582;-56
2023/06/30 03:46:27;;;;;;;1.73;1.63;;;;;17.80;95579.00;;;;5052846;28;20193;-58
2023/06/30 03:48:54;;;;;;;1.63;1.63;;;;;17.80;95588.00;;;;5053052;28;20224;-55
2023/06/30 03:51:23;;;;;;;1.27;1.23;;;;;17.90;95590.00;;;;5051262;28;20208;-55
2023/06/30 03:53:50;;;;;;;1.03;1.03;;;;;18.00;95584.00;;;;5052648;28;20223;-55
2023/06/30 03:56:18;;;;;;;1.07;1.07;;;;;18.20;95584.00;;;;5052830;28;20199;-55
2023/06/30 03:58:47;;;;;;;0.73;0.73;;;;;18.30;95572.00;;;;5052710;28;20529;-55
2023/06/30 04:01:14;;;;;;;0.93;0.93;;;;;18.40;95585.00;;;;5052943;28;20639;-55
2023/06/30 04:03:41;;;;;;;1.10;1.10;;;;;18.40;95578.00;;;;5052667;28;20698;-55
2023/06/30 04:06:09;;;;;;;1.07;1.07;;;;;18.50;95574.00;;;;5052614;28;20212;-55
2023/06/30 04:08:38;;;;;;;1.27;1.27;;;;;18.70;95574.00;;;;5052515;28;20191;-55
2023/06/30 04:11:05;;;;;;;0.87;0.87;;;;;18.80;95578.00;;;;5052787;28;20202;-55
2023/06/30 04:13:32;;;;;;;0.70;0.70;;;;;18.70;95581.00;;;;5052439;28;20212;-55
2023/06/30 04:16:00;;;;;;;1.10;1.10;;;;;18.50;95585.00;;;;5052419;28;20200;-55
2023/06/30 04:18:27;;;;;;;0.80;0.80;;;;;18.50;95589.00;;;;5052403;28;20204;-55
2023/06/30 04:20:55;;;;;;;1.27;1.23;;;;;18.40;95591.00;;;;5052431;28;20274;-55
2023/06/30 04:23:22;;;;;;;1.13;1.13;;;;;18.40;95589.00;;;;5052414;28;20212;-55
2023/06/30 04:25:51;;;;;;;1.00;1.00;;;;;18.10;95581.00;;;;5052465;28;20192;-56
2023/06/30 04:28:18;;;;;;;0.90;0.90;;;;;18.00;95578.00;;;;5051134;28;20207;-55
2023/06/30 04:30:47;;;;;;;1.03;1.03;;;;;18.10;95575.00;;;;5052453;28;20238;-55
2023/06/30 04:33:14;;;;;;;0.60;0.60;;;;;18.10;95578.00;;;;5052286;28;20222;-55
2023/06/30 04:35:44;;;;;;;1.30;1.30;;;;;18.20;95568.00;;;;5052563;28;20265;-56
2023/06/30 04:38:11;;;;;;;0.90;0.90;;;;;18.20;95578.00;;;;5055547;28;20270;-56
2023/06/30 04:40:38;;;;;;;1.50;1.40;;;;;18.30;95564.00;;;;5056142;28;20184;-55
2023/06/30 04:43:12;;;;;;;1.57;1.50;;;;;18.40;95576.00;;;;5054839;28;20200;-55
2023/06/30 04:45:39;;;;;;;0.63;0.63;;;;;18.50;95586.00;;;;5056186;28;20191;-56
2023/06/30 04:48:08;;;;;;;1.13;1.13;;;;;18.50;95577.00;;;;5056077;28;20188;-56
2023/06/30 04:50:35;;;;;;;2.00;1.73;;;;;18.50;95575.00;;;;5055873;28;20251;-56
2023/06/30 04:53:03;;;;;;;1.20;1.20;;;;;18.60;95584.00;;;;5056130;28;20219;-56
2023/06/30 04:55:30;;;;;;;2.13;2.03;;;;;18.40;95587.00;;;;5055936;28;20697;-56
2023/06/30 04:57:58;;;;;;;1.97;1.67;;;;;18.40;95582.00;;;;5055972;28;20188;-55
2023/06/30 05:00:27;;;;;;;1.23;1.23;;;;;18.30;95590.00;;;;5056227;28;20197;-56
2023/06/30 05:02:56;;;;;;;1.43;1.33;;;;;18.40;95585.00;;;;5056154;28;20711;-56
2023/06/30 05:05:23;;;;;;;1.80;1.53;;;;;18.50;95587.00;;;;5055776;28;20196;-56
2023/06/30 05:07:51;;;;;;;0.80;0.80;;;;;18.30;95585.00;;;;5055523;28;20203;-56
2023/06/30 05:10:18;;;;;;;1.70;1.23;;;;;18.20;95579.00;;;;5055627;28;20216;-56
2023/06/30 05:12:48;;;;;;;1.00;1.00;;;;;18.30;95588.00;;;;5055580;28;20195;-56
2023/06/30 05:15:15;;;;;;;1.30;1.30;;;;;18.40;95583.00;;;;5055874;28;20218;-56
2023/06/30 05:17:44;;;;;;;0.87;0.87;;;;;18.50;95586.00;;;;5054224;28;20195;-56
2023/06/30 05:20:12;;;;;;;1.20;1.10;;;;;18.70;95577.00;;;;5055441;28;20188;-59
2023/06/30 05:22:39;;;;;;;0.97;0.97;;;;;18.70;95570.00;;;;5055597;28;20192;-56
2023/06/30 05:25:08;;;;;;;1.30;1.20;;;;;18.70;95563.00;;;;5055380;28;20216;-56
2023/06/30 05:27:35;;;;;;;1.23;1.20;;;;;18.80;95570.00;;;;5055320;28;20219;-55
2023/06/30 05:30:03;;;;;;;1.33;1.20;;;;;18.80;95576.00;;;;5055342;28;20220;-57
2023/06/30 05:32:30;;;;;;;0.83;0.83;;;;;18.80;95576.00;;;;5055561;28;20223;-56
2023/06/30 05:34:59;;;;;;;1.27;1.27;;;;;18.80;95579.00;;;;5053879;28;20218;-55
2023/06/30 05:37:26;;;;;;;1.30;1.30;;;;;18.90;95578.00;;;;5055471;28;20196;-55
2023/06/30 05:39:54;;;;;;;1.67;1.57;;;;;19.00;95588.00;;;;5055422;28;20180;-55
2023/06/30 05:42:21;;;;;;;0.90;0.90;;;;;19.00;95587.00;;;;5054091;28;20200;-56
2023/06/30 05:44:50;;;;;;;1.73;1.63;;;;;19.00;95579.00;;;;5055077;28;20216;-56
2023/06/30 05:47:18;;;;;;;1.03;1.03;;;;;19.10;95581.00;;;;5054559;28;20279;-54
2023/06/30 05:49:45;;;;;;;1.63;1.53;;;;;19.10;95584.00;;;;5054874;28;20639;-55
2023/06/30 05:52:14;;;;;;;2.50;2.40;;;;;19.30;95581.00;;;;5054825;28;20188;-55
2023/06/30 05:54:42;;;;;;;1.80;1.70;;;;;19.40;95590.00;;;;5054669;28;20231;-56
2023/06/30 05:57:10;;;;;;;1.20;1.17;;;;;19.60;95588.00;;;;5055130;28;20204;-56
2023/06/30 05:59:37;;;;;;;1.03;0.93;;;;;19.30;95581.00;;;;5054751;28;20195;-56
2023/06/30 06:02:04;;;;;;;0.87;0.87;;;;;19.40;95587.00;;;;5054853;28;20211;-56
2023/06/30 06:04:32;;;;;;;1.23;1.20;;;;;19.50;95577.00;;;;5054675;28;20215;-58
2023/06/30 06:07:02;;;;;;;0.80;0.80;;;;;19.60;95598.00;;;;5054885;28;20537;-56
2023/06/30 06:09:31;;;;;;;1.80;1.70;;;;;19.70;95593.00;;;;5054451;28;20220;-56
2023/06/30 06:11:58;;;;;;;1.73;1.63;;;;;19.80;95593.00;;;;5054468;28;20538;-56
2023/06/30 06:14:26;;;;;;;1.33;1.27;;;;;19.80;95596.00;;;;5054486;28;20222;-55
2023/06/30 06:16:53;;;;;;;1.70;1.60;;;;;19.90;95602.00;;;;5054545;28;20188;-56
2023/06/30 06:19:21;;;;;;;0.83;0.83;;;;;19.80;95602.00;;;;5055057;28;20192;-56
2023/06/30 06:21:49;;;;;;;1.97;1.83;;;;;19.80;95603.00;;;;5055064;28;20188;-56
2023/06/30 06:24:17;;;;;;;1.13;1.13;;;;;19.70;95606.00;;;;5054252;28;20581;-56
2023/06/30 06:26:46;;;;;;;1.50;1.40;;;;;19.60;95605.00;;;;5054251;28;20200;-56
2023/06/30 06:29:18;;;;;;;1.63;1.53;;;;;19.60;95608.00;;;;5054934;28;20203;-55
2023/06/30 06:31:46;;;;;;;1.10;1.10;;;;;19.60;95611.00;;;;5054463;28;20273;-56
2023/06/30 06:34:13;;;;;;;1.63;1.47;;;;;19.70;95622.00;;;;5053749;28;20253;-55
2023/06/30 06:36:41;;;;;;;1.27;1.27;;;;;19.50;95614.00;;;;5052713;28;20223;-58
2023/06/30 06:39:08;;;;;;;1.67;1.57;;;;;19.40;95612.00;;;;5050189;28;20193;-57
2023/06/30 06:41:36;;;;;;;1.90;1.80;;;;;19.40;95619.00;;;;5052253;28;20728;-55
2023/06/30 06:44:05;;;;;;;1.10;1.10;;;;;19.30;95626.00;;;;5051611;28;20222;-53
2023/06/30 06:46:33;;;;;;;2.50;2.30;;;;;19.20;95635.00;;;;5052130;28;20624;-55
2023/06/30 06:49:00;;;;;;;2.47;2.00;;;;;18.80;95637.00;;;;5051408;28;20195;-55
2023/06/30 06:51:28;;;;;;;1.30;1.27;;;;;18.60;95646.00;;;;5052158;28;20214;-54
2023/06/30 06:53:55;;;;;;;1.53;1.47;;;;;18.40;95653.00;;;;5051134;28;20249;-54
2023/06/30 06:56:22;;;;;;;1.50;1.50;;;;;18.40;95652.00;;;;5052310;28;20195;-55
2023/06/30 06:58:50;;;;;;;1.73;1.63;;;;;18.30;95657.00;;;;5049759;28;20237;-55
2023/06/30 07:01:19;;;;;;;2.07;1.97;;;;;18.20;95657.00;;;;5051056;28;20288;-55
2023/06/30 07:03:46;;;;;;;2.40;2.20;;;;;18.30;95663.00;;;;5051300;28;20274;-55
2023/06/30 07:06:14;;;;;;;1.40;1.30;;;;;17.90;95669.00;;;;5051431;28;20207;-55
2023/06/30 07:08:41;;;;;;;2.60;2.40;;;;;17.80;95671.00;;;;5050973;28;20731;-55
2023/06/30 07:11:10;;;;;;;1.87;1.77;;;;;17.60;95662.00;;;;5050751;28;20227;-54
2023/06/30 07:13:39;;;;;;;2.13;2.03;;;;;17.30;95667.00;;;;5049468;28;20223;-55
2023/06/30 07:16:06;;;;;;;2.03;1.93;;;;;17.40;95662.00;;;;5051035;28;20200;-55
2023/06/30 07:18:36;;;;;;;1.60;1.50;;;;;17.50;95654.00;;;;5050966;28;20204;-55
2023/06/30 07:21:03;;;;;;;1.90;1.57;;;;;17.60;95661.00;;;;5050957;28;20640;-56
2023/06/30 07:23:31;;;;;;;2.60;2.47;;;;;17.70;95656.00;;;;5050928;28;20216;-57
2023/06/30 07:25:58;;;;;;;1.63;1.53;;;;;17.60;95665.00;;;;5051070;28;20203;-56
2023/06/30 07:28:26;;;;;;;2.90;2.67;;;;;17.70;95655.00;;;;5050834;28;20238;-55
2023/06/30 07:30:54;;;;;;;2.53;2.33;;;;;17.70;95667.00;;;;5049534;28;20757;-55
2023/06/30 07:33:21;;;;;;;2.57;2.37;;;;;17.50;95667.00;;;;5050813;28;20240;-55
2023/06/30 07:35:50;;;;;;;2.60;2.40;;;;;17.60;95677.00;;;;5050734;28;20203;-54
2023/06/30 07:38:17;;;;;;;3.17;2.37;;;;;17.60;95681.00;;;;5050620;28;20210;-55
2023/06/30 07:40:45;;;;;;;1.50;1.47;;;;;17.60;95676.00;;;;5050572;28;20196;-55
2023/06/30 07:43:13;;;;;;;12.13;2.57;;;;;17.70;95684.00;;;;5050635;28;20215;-55
2023/06/30 07:45:40;;;;;;;1.87;1.77;;;;;17.70;95691.00;;;;5049921;28;20290;-55
2023/06/30 07:48:08;;;;;;;2.23;2.03;;;;;17.60;95692.00;;;;5049529;28;20192;-55
2023/06/30 07:50:35;;;;;;;0.87;0.87;;;;;17.60;95689.00;;;;5050566;28;20216;-55
2023/06/30 07:53:08;;;;;;;6.23;2.63;;;;;17.60;95695.00;;;;5049065;28;20286;-55
2023/06/30 07:55:35;;;;;;;2.23;2.03;;;;;17.70;95700.00;;;;5060512;22;20278;-60
2023/06/30 07:58:03;;;;;;;1.47;1.37;;;;;17.70;95710.00;;;;5029705;28;20215;-60
2023/06/30 08:00:30;;;;;;;3.07;2.87;;;;;17.80;95709.00;;;;5030671;28;20235;-61
2023/06/30 08:02:58;;;;;;;1.57;1.47;;;;;17.80;95703.00;;;;5030941;28;20280;-60
2023/06/30 08:05:25;;;;;;;7.67;2.93;;;;;17.80;95702.00;;;;5030201;28;20316;-59
2023/06/30 08:07:53;;;;;;;2.93;2.13;;;;;17.90;95700.00;;;;5005352;28;20228;-59
2023/06/30 08:10:22;;;;;;;1.60;1.50;;;;;17.80;95702.00;;;;5011119;28;20224;-60
2023/06/30 08:12:50;;;;;;;1.63;1.40;;;;;17.80;95699.00;;;;5014772;28;20669;-60
2023/06/30 08:15:17;;;;;;;1.93;1.83;;;;;17.80;95703.00;;;;5020814;28;20687;-60
2023/06/30 08:17:45;;;;;;;1.43;1.37;;;;;17.80;95705.00;;;;5034829;28;20578;-59
2023/06/30 08:20:13;;;;;;;1.80;1.70;;;;;17.90;95702.00;;;;5034098;28;20288;-61
2023/06/30 08:22:40;;;;;;;1.73;1.67;;;;;18.10;95695.00;;;;5032998;28;20212;-60
2023/06/30 08:25:08;;;;;;;6.87;2.63;;;;;18.20;95689.00;;;;5032617;28;20694;-60
2023/06/30 08:27:37;;;;;;;3.23;1.73;;;;;18.20;95689.00;;;;5016937;28;20236;-60
2023/06/30 08:30:06;;;;;;;1.83;1.73;;;;;18.30;95685.00;;;;5033975;28;20311;-60
2023/06/30 08:32:33;;;;;;;1.53;1.43;;;;;18.30;95685.00;;;;5034623;28;20236;-60
2023/06/30 08:35:01;;;;;;;2.73;2.50;;;;;18.30;95675.00;;;;5033741;28;20224;-60
2023/06/30 08:37:28;;;;;;;1.90;1.67;;;;;18.40;95649.00;;;;5034588;28;20208;-60
2023/06/30 08:39:56;;;;;;;2.80;2.20;;;;;18.40;95680.00;;;;5033797;28;20192;-60
2023/06/30 08:42:28;;;;;;;1.60;1.50;;;;;18.40;95675.00;;;;5021121;28;20632;-60
2023/06/30 08:44:58;;;;;;;1.27;1.27;;;;;18.50;95671.00;;;;5013786;28;20232;-60
2023/06/30 08:47:28;;;;;;;2.53;2.33;;;;;18.60;95670.00;;;;5015017;28;20197;-60
2023/06/30 08:49:56;;;;;;;4.77;2.90;;;;;18.70;95663.00;;;;5019427;28;20197;-60
2023/06/30 08:52:24;;;;;;;2.27;2.17;;;;;18.70;95667.00;;;;5014726;28;20520;-61
2023/06/30 08:54:51;;;;;;;2.43;2.33;;;;;18.80;95664.00;;;;5019143;28;20203;-60
2023/06/30 08:57:21;;;;;;;1.60;1.50;;;;;18.80;95655.00;;;;5033755;28;20262;-60
2023/06/30 08:59:49;;;;;;;1.73;1.63;;;;;18.90;95658.00;;;;5033039;28;20552;-60
2023/06/30 09:02:18;;;;;;;2.23;2.07;;;;;19.00;95661.00;;;;5014903;28;20189;-60
2023/06/30 09:04:46;;;;;;;2.60;2.00;;;;;19.00;95656.00;;;;5033363;28;20573;-60
2023/06/30 09:07:26;;;;;;;1.77;1.67;;;;;19.00;95653.00;;;;5028358;28;20251;-60
2023/06/30 09:09:58;;;;;;;1.23;1.13;;;;;19.10;95649.00;;;;5013506;28;20204;-60
2023/06/30 09:12:27;;;;;;;1.73;1.63;;;;;19.30;95647.00;;;;5009032;28;20304;-61
2023/06/30 09:14:57;;;;;;;1.77;1.67;;;;;19.50;95647.00;;;;5033399;28;20287;-60
2023/06/30 09:17:26;;;;;;;2.53;2.33;;;;;19.60;95657.00;;;;5034110;28;20204;-60
2023/06/30 09:19:54;;;;;;;1.97;1.83;;;;;19.80;95649.00;;;;5033324;28;20600;-60
2023/06/30 09:22:22;;;;;;;1.13;1.13;;;;;19.90;95656.00;;;;5032956;28;20199;-61
2023/06/30 09:24:49;;;;;;;1.90;1.33;;;;;19.80;95652.00;;;;5032885;28;20200;-60
2023/06/30 09:27:18;;;;;;;1.47;1.37;;;;;20.00;95645.00;;;;5033583;28;20217;-61
2023/06/30 09:29:53;;;;;;;1.93;1.83;;;;;20.30;95649.00;;;;5012423;28;20201;-60
2023/06/30 09:32:30;;;;;;;1.13;1.13;;;;;20.60;95634.00;;;;5009334;28;20228;-60
2023/06/30 09:35:01;;;;;;;2.00;1.83;;;;;20.70;95640.00;;;;5012744;28;20205;-61
2023/06/30 09:37:28;;;;;;;1.67;1.57;;;;;20.80;95639.00;;;;5013711;28;20190;-60
2023/06/30 09:39:56;;;;;;;1.98;1.88;;;;;20.80;95647.00;;;;4995200;28;20209;-61
2023/06/30 09:42:23;;;;;;;1.70;1.60;;;;;20.80;95650.00;;;;4995652;28;20193;-60
2023/06/30 09:44:54;;;;;;;1.33;1.33;;;;;20.80;95655.00;;;;5013200;28;20272;-61
2023/06/30 09:47:21;;;;;;;1.53;1.27;;;;;20.50;95656.00;;;;5013542;28;20247;-61
2023/06/30 09:49:50;;;;;;;1.83;1.73;;;;;20.40;95656.00;;;;5012797;28;20201;-61
2023/06/30 09:52:24;;;;;;;5.82;2.58;;;;;20.50;95653.00;;;;5013365;28;20221;-59
2023/06/30 09:54:52;;;;;;;1.70;1.60;;;;;20.40;95663.00;;;;5024665;28;20216;-59
2023/06/30 09:57:20;;;;;;;1.15;1.15;;;;;20.40;95665.00;;;;5013330;28;20270;-59
2023/06/30 09:59:47;;;;;;;2.53;2.33;;;;;20.40;95667.00;;;;5012877;28;20221;-59
2023/06/30 10:02:16;;;;;;;1.83;1.73;;;;;20.00;95668.00;;;;5012943;28;20232;-59
2023/06/30 10:04:44;;;;;;;2.93;2.13;;;;;20.00;95672.00;;;;5011156;28;20318;-61
2023/06/30 10:07:15;;;;;;;2.53;1.80;;;;;19.80;95676.00;;;;5012683;28;20296;-61
2023/06/30 10:09:45;;;;;;;1.80;1.70;;;;;19.70;95676.00;;;;5012738;28;20201;-60
2023/06/30 10:12:15;;;;;;;2.47;2.27;;;;;19.70;95673.00;;;;5013088;28;20259;-59
2023/06/30 10:14:44;;;;;;;2.70;2.33;;;;;19.80;95672.00;;;;5012635;28;20193;-59
2023/06/30 10:17:13;;;;;;;3.40;2.30;;;;;19.60;95672.00;;;;5012558;28;20228;-60
2023/06/30 10:19:42;;;;;;;2.80;2.60;;;;;19.90;95677.00;;;;5012764;28;20232;-60
2023/06/30 10:22:09;;;;;;;2.13;2.03;;;;;19.90;95670.00;;;;5012994;28;20197;-60
2023/06/30 10:24:41;;;;;;;1.73;1.63;;;;;19.80;95670.00;;;;5032003;28;20695;-61
2023/06/30 10:27:11;;;;;;;1.67;1.57;;;;;19.90;95663.00;;;;5032214;28;20220;-61
2023/06/30 10:29:39;;;;;;;2.40;2.30;;;;;19.90;95667.00;;;;5032000;28;20228;-60
2023/06/30 10:32:07;;;;;;;2.03;1.67;;;;;20.00;95664.00;;;;5030889;28;20212;-60
2023/06/30 10:34:36;;;;;;;2.60;2.07;;;;;19.80;95672.00;;;;5029742;28;20204;-60
2023/06/30 10:37:05;;;;;;;1.45;1.45;;;;;19.90;95669.00;;;;5031804;28;20217;-60
2023/06/30 10:39:32;;;;;;;4.90;2.07;;;;;20.00;95677.00;;;;5030480;28;20223;-60
2023/06/30 10:42:01;;;;;;;1.05;1.02;;;;;19.90;95674.00;;;;5014331;28;20272;-59
2023/06/30 10:44:38;;;;;;;5.13;2.47;;;;;19.90;95669.00;;;;4994328;28;20209;-60
2023/06/30 10:47:05;;;;;;;2.07;1.97;;;;;19.90;95675.00;;;;5019764;28;20278;-60
2023/06/30 10:49:35;;;;;;;2.27;2.17;;;;;19.90;95673.00;;;;5031513;28;20203;-60
2023/06/30 10:52:05;;;;;;;1.53;1.47;;;;;19.90;95675.00;;;;5026532;28;20225;-60
2023/06/30 10:54:38;;;;;;;1.60;1.50;;;;;19.80;95684.00;;;;5004398;28;20710;-60
2023/06/30 10:57:10;;;;;;;2.87;2.67;;;;;20.00;95687.00;;;;5007795;28;20248;-60
2023/06/30 10:59:39;;;;;;;2.47;2.27;;;;;19.80;95689.00;;;;5011755;28;20197;-60
2023/06/30 11:02:31;;;;;;;2.30;2.10;;;;;19.50;95701.00;;;;5011623;28;20197;-60
2023/06/30 11:05:16;;;;;;;1.83;1.73;;;;;19.70;95689.00;;;;4997730;28;20217;-60
2023/06/30 11:07:46;;;;;;;3.37;2.47;;;;;19.80;95671.00;;;;5011468;28;20205;-60
2023/06/30 11:10:14;;;;;;;2.30;1.80;;;;;19.90;95663.00;;;;5011519;28;20296;-60
2023/06/30 11:12:56;;;;;;;3.67;3.33;;;;;19.80;95664.00;;;;5011320;28;20232;-60
2023/06/30 11:15:29;;;;;;;2.47;2.13;;;;;20.10;95661.00;;;;5011209;28;20221;-60
2023/06/30 11:18:03;;;;;;;2.37;2.27;;;;;19.80;95664.00;;;;5010652;28;20548;-61
2023/06/30 11:20:31;;;;;;;1.57;1.47;;;;;19.90;95661.00;;;;5011383;28;20280;-61
2023/06/30 11:23:00;;;;;;;2.37;2.27;;;;;19.70;95661.00;;;;4993648;28;20633;-60
2023/06/30 11:25:28;;;;;;;1.77;1.67;;;;;19.60;95668.00;;;;5010447;28;20312;-61
2023/06/30 11:28:00;;;;;;;3.37;3.07;;;;;19.50;95662.00;;;;5011593;28;20231;-61
2023/06/30 11:30:28;;;;;;;8.60;4.33;;;;;19.80;95664.00;;;;5010822;28;20271;-61
2023/06/30 11:32:58;;;;;;;2.60;2.40;;;;;19.70;95660.00;;;;5011368;28;20221;-61
2023/06/30 11:35:28;;;;;;;2.50;2.40;;;;;19.90;95655.00;;;;5010744;28;20720;-61
2023/06/30 11:37:56;;;;;;;5.47;2.80;;;;;19.90;95656.00;;;;5020304;28;20223;-61
2023/06/30 11:40:24;;;;;;;3.03;2.77;;;;;20.00;95653.00;;;;5030007;28;20201;-60
2023/06/30 11:42:52;;;;;;;2.47;2.27;;;;;19.90;95653.00;;;;5031341;28;20516;-61
2023/06/30 11:45:27;;;;;;;4.60;4.20;;;;;20.00;95654.00;;;;5030027;28;20224;-60
2023/06/30 11:47:56;;;;;;;2.80;2.60;;;;;19.80;95640.00;;;;5013581;28;20562;-61
2023/06/30 11:50:25;;;;;;;3.73;3.27;;;;;20.20;95639.00;;;;5006754;28;20669;-61
2023/06/30 11:52:52;;;;;;;2.13;2.03;;;;;20.40;95644.00;;;;4993127;28;20251;-61
2023/06/30 11:55:20;;;;;;;4.27;2.97;;;;;20.50;95647.00;;;;5025476;28;20212;-61
2023/06/30 11:57:50;;;;;;;1.50;1.40;;;;;20.20;95639.00;;;;5030881;28;20201;-61
2023/06/30 12:00:21;;;;;;;2.43;2.23;;;;;20.30;95646.00;;;;5019355;28;20204;-61
2023/06/30 12:02:50;;;;;;;2.43;2.23;;;;;20.60;95648.00;;;;5030852;28;20224;-61
2023/06/30 12:05:21;;;;;;;6.20;3.00;;;;;20.70;95634.00;;;;5029989;28;20223;-61
2023/06/30 12:07:51;;;;;;;3.10;2.90;;;;;20.70;95640.00;;;;5031125;28;20544;-60
2023/06/30 12:10:19;;;;;;;2.40;2.25;;;;;20.80;95644.00;;;;5030140;28;20193;-61
2023/06/30 12:12:56;;;;;;;3.57;3.27;;;;;21.00;95636.00;;;;5012791;28;20231;-63
2023/06/30 12:15:25;;;;;;;2.23;2.10;;;;;20.80;95635.00;;;;5030374;28;20302;-61
2023/06/30 12:17:55;;;;;;;6.25;2.15;;;;;21.10;95638.00;;;;5030728;28;20220;-60
2023/06/30 12:20:31;;;;;;;3.05;2.80;;;;;21.30;95634.00;;;;5020927;28;20194;-61
2023/06/30 12:22:59;;;;;;;3.27;3.07;;;;;20.80;95642.00;;;;5010972;28;20189;-61
2023/06/30 12:25:27;;;;;;;3.58;3.28;;;;;20.90;95642.00;;;;5010671;28;20312;-61